Time;durP1;ratioP1;P1;durP2;ratioP2;P2;SDS_P1;SDS_P2;PMS_P1;PMS_P2;Temp;Humidity;BMP_temperature;BMP_pressure;BME280_temperature;BME280_humidity;BME280_pressure;Samples;Min_cycle;Max_cycle;Signal;HPM_P1;HPM_P2
2022/09/27 00:01:41;;;;;;;3.97;2.70;;;;;;;10.83;100.00;98518.56;5016587;28;20215;-75
2022/09/27 00:04:07;;;;;;;3.60;3.07;;;;;;;10.87;100.00;98527.06;5023061;28;20187;-74
2022/09/27 00:06:33;;;;;;;3.20;2.90;;;;;;;10.85;100.00;98518.53;5017941;28;20196;-75
2022/09/27 00:08:58;;;;;;;4.77;3.43;;;;;;;10.85;100.00;98515.94;5016022;28;20187;-74
2022/09/27 00:11:33;;;;;;;3.73;3.27;;;;;;;10.84;100.00;98517.66;5016992;28;20180;-74
2022/09/27 00:14:00;;;;;;;3.27;2.97;;;;;;;10.88;100.00;98515.81;5017773;28;20245;-74
2022/09/27 00:16:28;;;;;;;2.90;2.10;;;;;;;10.91;100.00;98519.13;5014014;28;20620;-74
2022/09/27 00:19:01;;;;;;;4.10;3.00;;;;;;;10.93;100.00;98511.28;5016151;28;20265;-74
2022/09/27 00:21:28;;;;;;;3.70;2.97;;;;;;;10.91;100.00;98506.19;5014019;28;20177;-75
2022/09/27 00:23:54;;;;;;;3.93;2.73;;;;;;;10.88;100.00;98505.47;5019451;28;20189;-74
2022/09/27 00:26:19;;;;;;;3.80;2.77;;;;;;;10.86;100.00;98507.28;5016230;28;20200;-74
2022/09/27 00:28:45;;;;;;;4.33;2.90;;;;;;;10.86;100.00;98502.91;5018775;28;20194;-75
2022/09/27 00:31:31;;;;;;;4.67;3.07;;;;;;;10.87;100.00;98502.03;5013014;28;20184;-75
2022/09/27 00:33:59;;;;;;;3.93;2.90;;;;;;;10.89;100.00;98497.63;5021514;28;20207;-75
2022/09/27 00:36:27;;;;;;;6.17;3.73;;;;;;;10.93;100.00;98504.38;5017691;28;20581;-74
2022/09/27 00:38:52;;;;;;;4.93;3.03;;;;;;;10.97;100.00;98495.56;5013562;28;20189;-74
2022/09/27 00:41:26;;;;;;;7.07;4.17;;;;;;;10.91;100.00;98494.97;5017203;28;20191;-74
2022/09/27 00:43:54;;;;;;;4.30;3.33;;;;;;;10.89;100.00;98489.88;5017146;28;20188;-74
2022/09/27 00:46:40;;;;;;;3.37;3.07;;;;;;;10.93;100.00;98498.34;5017216;28;20218;-74
2022/09/27 00:49:17;;;;;;;3.33;2.50;;;;;;;10.90;100.00;98501.91;5009766;28;20197;-74
2022/09/27 00:51:47;;;;;;;7.77;4.43;;;;;;;10.95;100.00;98497.41;5015537;28;20195;-74
2022/09/27 00:54:16;;;;;;;8.23;4.83;;;;;;;10.93;100.00;98490.59;5017404;28;20707;-73
2022/09/27 00:56:42;;;;;;;6.33;4.43;;;;;;;10.90;100.00;98494.16;5015362;28;20564;-74
2022/09/27 00:59:16;;;;;;;10.93;7.20;;;;;;;10.91;100.00;98493.25;5015849;28;20188;-74
2022/09/27 01:01:42;;;;;;;4.67;3.73;;;;;;;10.91;100.00;98492.38;5019797;28;20187;-74
2022/09/27 01:04:10;;;;;;;4.17;3.30;;;;;;;10.90;100.00;98499.31;5015701;28;20184;-74
2022/09/27 01:06:36;;;;;;;5.07;3.40;;;;;;;10.91;100.00;98493.25;5017088;28;20294;-74
2022/09/27 01:09:05;;;;;;;3.33;2.40;;;;;;;10.90;100.00;98501.91;5016872;28;20191;-74
2022/09/27 01:12:07;;;;;;;3.10;2.53;;;;;;;10.93;100.00;98513.88;5015514;28;20266;-74
2022/09/27 01:15:11;;;;;;;2.67;2.10;;;;;;;10.91;100.00;98541.56;5021121;28;20175;-75
2022/09/27 01:17:49;;;;;;;2.10;1.70;;;;;;;10.89;100.00;98551.97;5015269;28;20835;-75
2022/09/27 01:20:32;;;;;;;1.43;1.33;;;;;;;10.87;100.00;98534.84;5014858;28;20192;-74
2022/09/27 01:23:28;;;;;;;1.30;1.20;;;;;;;10.84;100.00;98535.78;5014715;28;20361;-74
2022/09/27 01:26:25;;;;;;;1.10;1.00;;;;;;;10.80;100.00;98542.00;5013056;28;20294;-74
2022/09/27 01:29:03;;;;;;;1.10;1.00;;;;;;;10.77;100.00;98547.28;5015924;28;20187;-74
2022/09/27 01:31:37;;;;;;;1.37;1.27;;;;;;;10.78;100.00;98556.72;5017932;28;20183;-75
2022/09/27 01:34:14;;;;;;;1.20;1.10;;;;;;;10.77;100.00;98553.28;5017647;28;20572;-75
2022/09/27 01:37:00;;;;;;;1.87;1.20;;;;;;;10.77;100.00;98549.88;5010723;28;20223;-74
2022/09/27 01:39:58;;;;;;;1.30;1.20;;;;;;;10.75;100.00;98555.06;5015546;28;20192;-75
2022/09/27 01:42:30;;;;;;;3.37;1.17;;;;;;;10.73;100.00;98553.47;5014431;28;20199;-75
2022/09/27 01:45:20;;;;;;;1.53;1.27;;;;;;;10.71;100.00;98555.25;5015528;28;20266;-75
2022/09/27 01:48:19;;;;;;;2.60;1.20;;;;;;;10.68;100.00;98570.00;5012933;28;20286;-75
2022/09/27 01:50:57;;;;;;;1.67;1.40;;;;;;;10.62;100.00;98565.06;5013289;28;20267;-75
2022/09/27 01:53:30;;;;;;;2.83;1.50;;;;;;;10.62;100.00;98575.41;5018102;28;20275;-74
2022/09/27 01:55:56;;;;;;;1.87;1.27;;;;;;;10.62;100.00;98574.53;5019279;28;20200;-75
2022/09/27 01:58:27;;;;;;;2.07;1.50;;;;;;;10.59;100.00;98569.50;5014931;28;21145;-74
2022/09/27 02:00:54;;;;;;;3.20;1.70;;;;;;;10.58;100.00;98578.16;5019442;28;20679;-75
2022/09/27 02:03:27;;;;;;;2.77;1.37;;;;;;;10.56;100.00;98578.22;5014787;28;20577;-74
2022/09/27 02:05:57;;;;;;;2.20;1.50;;;;;;;10.55;100.00;98581.69;5015525;28;20211;-74
2022/09/27 02:08:48;;;;;;;3.33;1.67;;;;;;;10.58;100.00;98579.00;5015423;28;20565;-75
2022/09/27 02:11:14;;;;;;;3.00;1.80;;;;;;;10.58;100.00;98579.00;5030374;28;20172;-74
2022/09/27 02:13:55;;;;;;;3.03;1.60;;;;;;;10.55;100.00;98581.69;5041693;28;20195;-75
2022/09/27 02:16:23;;;;;;;2.37;1.70;;;;;;;10.59;100.00;98583.28;5032046;28;20591;-75
2022/09/27 02:19:11;;;;;;;3.87;1.70;;;;;;;10.62;100.00;98585.75;5016417;28;20188;-74
2022/09/27 02:21:51;;;;;;;2.77;1.70;;;;;;;10.60;100.00;98586.69;5013969;28;20216;-75
2022/09/27 02:24:23;;;;;;;3.10;1.63;;;;;;;10.61;100.00;98586.66;5022169;28;20233;-75
2022/09/27 02:27:00;;;;;;;1.50;1.07;;;;;;;10.59;100.00;98585.84;5024401;28;20687;-74
2022/09/27 02:29:38;;;;;;;3.63;1.80;;;;;;;10.59;100.00;98593.63;5016548;28;20266;-74
2022/09/27 02:32:03;;;;;;;4.00;1.60;;;;;;;10.57;100.00;98592.84;5008970;28;20264;-75
2022/09/27 02:34:32;;;;;;;2.63;1.73;;;;;;;10.58;100.00;98599.69;5013308;28;20192;-75
2022/09/27 02:36:58;;;;;;;3.00;1.80;;;;;;;10.57;100.00;98592.84;5013731;28;20224;-74
2022/09/27 02:39:24;;;;;;;3.17;2.00;;;;;;;10.59;100.00;98603.13;5014598;28;20210;-75
2022/09/27 02:41:50;;;;;;;4.90;1.90;;;;;;;10.55;100.00;98597.22;5014749;28;20192;-74
2022/09/27 02:44:17;;;;;;;1.77;1.60;;;;;;;10.56;100.00;98600.66;5015751;28;20204;-75
2022/09/27 02:47:01;;;;;;;4.03;2.20;;;;;;;10.56;100.00;98596.31;5018751;28;20208;-75
2022/09/27 02:49:42;;;;;;;3.07;1.60;;;;;;;10.57;100.00;98613.53;5018366;28;20187;-75
2022/09/27 02:52:13;;;;;;;3.63;2.00;;;;;;;10.55;100.00;98604.97;5011539;28;20206;-75
2022/09/27 02:54:44;;;;;;;3.13;2.70;;;;;;;10.55;100.00;98593.78;5019974;28;20187;-75
2022/09/27 02:57:27;;;;;;;5.40;3.80;;;;;;;10.58;100.00;98612.63;5013700;28;20215;-74
2022/09/27 03:00:04;;;;;;;4.07;3.17;;;;;;;10.57;100.00;98610.94;5020851;28;20206;-74
2022/09/27 03:02:45;;;;;;;3.60;3.23;;;;;;;10.55;100.00;98614.50;5014772;28;20325;-75
2022/09/27 03:05:17;;;;;;;4.70;2.80;;;;;;;10.52;100.00;98616.28;5012633;28;20188;-74
2022/09/27 03:07:43;;;;;;;6.03;2.80;;;;;;;10.51;100.00;98622.34;5020796;28;20714;-75
2022/09/27 03:10:16;;;;;;;5.17;3.23;;;;;;;10.54;100.00;98617.97;5017872;28;20187;-74
2022/09/27 03:12:41;;;;;;;5.20;3.17;;;;;;;10.52;100.00;98624.03;5019078;28;20193;-74
2022/09/27 03:15:07;;;;;;;6.10;2.80;;;;;;;10.52;100.00;98625.75;5024909;28;20253;-74
2022/09/27 03:17:33;;;;;;;6.73;4.03;;;;;;;10.53;100.00;98622.28;5018877;28;20222;-75
2022/09/27 03:19:58;;;;;;;6.77;3.80;;;;;;;10.53;100.00;98617.09;5017304;28;20190;-75
2022/09/27 03:22:23;;;;;;;5.80;4.07;;;;;;;10.52;100.00;98629.22;5021197;28;20187;-75
2022/09/27 03:24:48;;;;;;;9.07;4.87;;;;;;;10.50;100.00;98631.00;5020337;28;20692;-75
2022/09/27 03:27:14;;;;;;;5.90;3.53;;;;;;;10.54;100.00;98628.31;5024209;28;20705;-75
2022/09/27 03:29:39;;;;;;;5.47;3.60;;;;;;;10.48;100.00;98624.22;5017202;28;20573;-74
2022/09/27 03:32:04;;;;;;;6.50;3.17;;;;;;;10.45;100.00;98630.31;5017730;28;20234;-74
2022/09/27 03:34:30;;;;;;;5.73;3.70;;;;;;;10.46;100.00;98636.34;5018449;28;20192;-74
2022/09/27 03:36:55;;;;;;;5.40;3.30;;;;;;;10.46;100.00;98632.00;5018828;28;20249;-75
2022/09/27 03:39:21;;;;;;;5.17;3.43;;;;;;;10.46;100.00;98628.59;5018141;28;20204;-75
2022/09/27 03:41:46;;;;;;;8.23;3.90;;;;;;;10.46;100.00;98631.16;5016127;28;20478;-75
2022/09/27 03:44:11;;;;;;;6.23;3.70;;;;;;;10.45;100.00;98635.47;5017509;28;20219;-74
2022/09/27 03:46:37;;;;;;;7.23;3.20;;;;;;;10.46;100.00;98634.59;5020442;28;20212;-74
2022/09/27 03:49:02;;;;;;;5.67;3.77;;;;;;;10.47;100.00;98638.03;5015800;28;20202;-74
2022/09/27 03:51:28;;;;;;;7.37;4.37;;;;;;;10.49;100.00;98641.41;5017561;28;20624;-75
2022/09/27 03:53:53;;;;;;;6.03;3.43;;;;;;;10.47;100.00;98646.63;5015500;28;20251;-74
2022/09/27 03:56:19;;;;;;;6.50;3.40;;;;;;;10.48;100.00;98643.13;5009053;28;20210;-74
2022/09/27 03:58:44;;;;;;;6.80;3.90;;;;;;;10.49;100.00;98642.25;5011725;28;20187;-75
2022/09/27 04:01:10;;;;;;;4.10;3.37;;;;;;;10.49;100.00;98646.59;5016052;28;20268;-75
2022/09/27 04:03:35;;;;;;;4.33;3.10;;;;;;;10.51;100.00;98645.63;5014145;28;20279;-74
2022/09/27 04:06:01;;;;;;;4.13;2.90;;;;;;;10.51;100.00;98652.56;5019708;28;20211;-74
2022/09/27 04:08:29;;;;;;;3.53;2.50;;;;;;;10.50;100.00;98661.22;5017466;28;20207;-74
2022/09/27 04:10:55;;;;;;;5.93;2.47;;;;;;;10.49;100.00;98656.94;5018521;28;20196;-74
2022/09/27 04:13:20;;;;;;;4.53;2.83;;;;;;;10.49;100.00;98656.94;5014996;28;20219;-74
2022/09/27 04:15:45;;;;;;;5.73;3.03;;;;;;;10.48;100.00;98645.72;5013571;28;20227;-75
2022/09/27 04:18:11;;;;;;;4.00;2.30;;;;;;;10.46;100.00;98657.88;5013934;28;20216;-74
2022/09/27 04:20:36;;;;;;;3.83;2.50;;;;;;;10.45;100.00;98648.41;5017867;28;20661;-75
2022/09/27 04:23:02;;;;;;;5.73;2.90;;;;;;;10.45;100.00;98653.59;5009574;28;20215;-74
2022/09/27 04:25:28;;;;;;;5.17;2.33;;;;;;;10.43;100.00;98658.00;5013466;28;20215;-74
2022/09/27 04:27:54;;;;;;;5.20;2.13;;;;;;;10.42;100.00;98652.84;5019475;28;20508;-74
2022/09/27 04:30:21;;;;;;;4.30;2.47;;;;;;;10.43;100.00;98663.16;5024761;28;20180;-75
2022/09/27 04:32:46;;;;;;;4.73;2.60;;;;;;;10.43;100.00;98658.00;5025635;28;20738;-74
2022/09/27 04:37:57;;;;;;;4.17;2.30;;;;;;;10.41;100.00;98674.44;5024236;28;20667;-74
2022/09/27 04:40:23;;;;;;;4.17;1.80;;;;;;;10.39;100.00;98674.50;5018942;28;20271;-74
2022/09/27 04:42:50;;;;;;;3.20;1.90;;;;;;;10.37;100.00;98678.84;5021729;28;20195;-74
2022/09/27 04:45:16;;;;;;;3.30;2.00;;;;;;;10.35;100.00;98681.50;5020066;28;20184;-75
2022/09/27 04:47:46;;;;;;;4.13;2.10;;;;;;;10.36;100.00;98680.56;5023766;28;20195;-76
2022/09/27 04:50:13;;;;;;;3.53;2.00;;;;;;;10.32;100.00;98676.44;5021922;28;20176;-75
2022/09/27 04:52:39;;;;;;;4.27;2.07;;;;;;;10.31;100.00;98691.97;5021926;28;20191;-74
2022/09/27 04:55:05;;;;;;;3.77;1.80;;;;;;;10.30;100.00;98698.91;5013270;28;20191;-74
2022/09/27 04:57:31;;;;;;;3.47;2.00;;;;;;;10.33;100.00;98701.38;5014919;28;20854;-75
2022/09/27 04:59:57;;;;;;;3.27;2.20;;;;;;;10.33;100.00;98701.38;5016367;28;20227;-75
2022/09/27 05:02:23;;;;;;;3.67;2.20;;;;;;;10.33;100.00;98709.16;5023854;28;20195;-76
2022/09/27 05:04:48;;;;;;;3.23;2.17;;;;;;;10.32;100.00;98704.88;5023292;28;20772;-76
2022/09/27 05:07:13;;;;;;;2.77;1.90;;;;;;;10.30;100.00;98714.41;5028593;28;20199;-75
2022/09/27 05:09:39;;;;;;;3.33;2.03;;;;;;;10.30;100.00;98721.31;5026605;28;20191;-75
2022/09/27 05:12:06;;;;;;;4.27;1.93;;;;;;;10.27;100.00;98726.59;5016322;28;20679;-75
2022/09/27 05:14:32;;;;;;;2.87;1.70;;;;;;;10.26;100.00;98732.66;5021394;28;20187;-74
2022/09/27 05:16:57;;;;;;;4.07;2.23;;;;;;;10.24;100.00;98731.88;5024200;28;20208;-75
2022/09/27 05:19:22;;;;;;;3.83;1.67;;;;;;;10.27;100.00;98731.78;5015621;28;20179;-75
2022/09/27 05:21:49;;;;;;;3.87;1.53;;;;;;;10.22;100.00;98742.25;5015275;28;20183;-75
2022/09/27 05:24:15;;;;;;;3.17;1.83;;;;;;;10.21;100.00;98731.06;5008915;28;20184;-75
2022/09/27 05:26:40;;;;;;;4.53;1.87;;;;;;;10.20;100.00;98741.47;5026515;28;20196;-75
2022/09/27 05:29:06;;;;;;;2.70;1.90;;;;;;;10.19;100.00;98747.53;5024059;28;20272;-75
2022/09/27 05:31:31;;;;;;;2.17;1.57;;;;;;;10.18;100.00;98743.25;5026305;28;20172;-75
2022/09/27 05:33:57;;;;;;;2.53;1.50;;;;;;;10.15;100.00;98748.53;5021706;28;20299;-75
2022/09/27 05:36:22;;;;;;;3.30;1.60;;;;;;;10.15;100.00;98753.69;5021186;28;20199;-75
2022/09/27 05:38:48;;;;;;;3.43;1.97;;;;;;;10.11;100.00;98754.69;5021582;28;20229;-75
2022/09/27 05:41:13;;;;;;;2.77;1.67;;;;;;;10.08;100.00;98760.78;5020870;28;20176;-75
2022/09/27 05:43:39;;;;;;;2.97;1.50;;;;;;;10.12;100.00;98758.94;5023990;28;20686;-76
2022/09/27 05:46:04;;;;;;;2.63;1.70;;;;;;;10.11;100.00;98765.88;5027126;28;20200;-74
2022/09/27 05:48:30;;;;;;;1.93;1.30;;;;;;;10.05;100.00;98772.09;5028132;28;20734;-75
2022/09/27 05:50:56;;;;;;;2.00;1.70;;;;;;;10.03;100.00;98775.59;5019532;28;20201;-75
2022/09/27 05:53:21;;;;;;;4.33;1.77;;;;;;;10.02;100.00;98782.50;5020071;28;20259;-75
2022/09/27 05:55:48;;;;;;;1.70;1.20;;;;;;;10.06;100.00;98791.84;5016120;28;20237;-75
2022/09/27 05:58:15;;;;;;;2.03;1.20;;;;;;;10.03;100.00;98794.53;5026976;28;20707;-75
2022/09/27 06:00:42;;;;;;;2.03;1.40;;;;;;;10.03;100.00;98791.97;5024528;28;20184;-75
2022/09/27 06:03:10;;;;;;;2.23;1.40;;;;;;;10.04;100.00;98798.81;5008469;28;20186;-75
2022/09/27 06:05:37;;;;;;;2.63;1.60;;;;;;;10.03;100.00;98802.31;5019595;28;20215;-75
2022/09/27 06:08:09;;;;;;;3.07;1.83;;;;;;;10.07;100.00;98811.63;5022690;28;20254;-75
2022/09/27 06:10:35;;;;;;;2.40;1.70;;;;;;;10.07;100.00;98803.88;5025451;28;20179;-75
2022/09/27 06:13:05;;;;;;;1.47;1.37;;;;;;;10.07;100.00;98808.22;5027385;28;20249;-75
2022/09/27 06:15:32;;;;;;;1.87;1.37;;;;;;;10.09;100.00;98809.03;5007155;28;20181;-75
2022/09/27 06:18:04;;;;;;;3.33;1.30;;;;;;;10.11;100.00;98806.38;5022254;28;20390;-76
2022/09/27 06:20:30;;;;;;;4.30;1.50;;;;;;;10.12;100.00;98815.81;5019275;28;20187;-75
2022/09/27 06:23:06;;;;;;;2.83;1.50;;;;;;;10.14;100.00;98814.88;5026182;28;20179;-75
2022/09/27 06:25:31;;;;;;;2.93;1.33;;;;;;;10.11;100.00;98816.72;5019523;28;20261;-75
2022/09/27 06:27:57;;;;;;;1.80;1.30;;;;;;;10.11;100.00;98824.47;5022791;28;20667;-75
2022/09/27 06:30:22;;;;;;;1.30;1.20;;;;;;;10.08;100.00;98830.59;5031112;28;20230;-75
2022/09/27 06:32:53;;;;;;;2.83;1.40;;;;;;;10.08;100.00;98833.19;5027788;28;20187;-75
2022/09/27 06:35:19;;;;;;;2.30;1.43;;;;;;;10.09;100.00;98834.00;5025409;28;20190;-75
2022/09/27 06:37:45;;;;;;;2.53;1.57;;;;;;;10.07;100.00;98839.22;5024810;28;20216;-75
2022/09/27 06:40:10;;;;;;;2.30;1.37;;;;;;;10.10;100.00;98838.28;5022330;28;20203;-75
2022/09/27 06:42:36;;;;;;;1.20;1.10;;;;;;;10.08;100.00;98840.94;5021984;28;20671;-75
2022/09/27 06:45:01;;;;;;;2.70;1.40;;;;;;;10.10;100.00;98840.88;5019489;28;20461;-75
2022/09/27 06:47:28;;;;;;;1.50;1.27;;;;;;;10.09;100.00;98847.78;5025553;28;20210;-75
2022/09/27 06:49:54;;;;;;;1.97;1.20;;;;;;;10.08;100.00;98843.50;5028961;28;20191;-75
2022/09/27 06:52:19;;;;;;;2.17;1.30;;;;;;;10.12;100.00;98850.28;5029506;28;20561;-75
2022/09/27 06:54:44;;;;;;;1.77;1.30;;;;;;;10.19;100.00;98849.19;5020561;28;20383;-75
2022/09/27 07:00:22;;;;;;;1.97;1.30;;;;;;;10.25;100.00;98861.09;5029175;28;20692;-75
2022/09/27 07:02:39;;;;;;;2.40;1.07;;;;;;;10.33;100.00;98864.28;5022579;28;20186;-75
2022/09/27 07:05:09;;;;;;;1.10;1.00;;;;;;;10.40;100.00;98862.41;5023870;28;20639;-75
2022/09/27 07:07:34;;;;;;;1.87;1.40;;;;;;;10.45;100.00;98865.66;5030477;28;20683;-75
2022/09/27 07:09:59;;;;;;;1.47;0.87;;;;;;;10.49;100.00;98871.59;5024694;28;20186;-75
2022/09/27 07:12:25;;;;;;;1.70;0.80;;;;;;;10.49;100.00;98872.44;5025139;28;20203;-75
2022/09/27 07:14:50;;;;;;;2.00;1.00;;;;;;;10.51;100.00;98882.75;5027237;28;20211;-75
2022/09/27 07:17:15;;;;;;;6.20;5.60;;;;;;;10.56;100.00;98887.78;5024433;28;20687;-76
2022/09/27 07:19:40;;;;;;;2.40;1.87;;;;;;;10.59;100.00;98879.94;5022241;28;20664;-75
2022/09/27 07:22:06;;;;;;;1.83;1.30;;;;;;;10.60;100.00;98884.19;5026362;28;20238;-76
2022/09/27 07:24:31;;;;;;;1.93;1.00;;;;;;;10.67;100.00;98883.09;5025919;28;20180;-75
2022/09/27 07:26:56;;;;;;;1.67;1.10;;;;;;;10.73;100.00;98885.50;5029592;28;20287;-75
2022/09/27 07:29:22;;;;;;;1.97;0.93;;;;;;;10.82;100.00;98884.34;5030593;28;20207;-75
2022/09/27 07:31:47;;;;;;;1.30;1.20;;;;;;;10.92;100.00;98883.16;5021537;28;20176;-75
2022/09/27 07:34:12;;;;;;;2.20;1.20;;;;;;;11.13;100.00;98881.59;5027754;28;20195;-75
2022/09/27 07:36:38;;;;;;;1.20;1.00;;;;;;;11.34;100.00;98889.53;5025814;28;20601;-75
2022/09/27 07:39:03;;;;;;;1.43;1.20;;;;;;;11.54;100.00;98887.97;5028158;28;20222;-75
2022/09/27 07:41:28;;;;;;;3.03;1.40;;;;;;;11.61;100.00;98897.22;5020270;28;20701;-75
2022/09/27 07:43:54;;;;;;;1.97;1.40;;;;;;;11.66;100.00;98884.09;5029018;28;20188;-75
2022/09/27 07:46:19;;;;;;;2.43;1.30;;;;;;;11.66;100.00;98891.88;5023309;28;20196;-76
2022/09/27 07:48:45;;;;;;;2.47;1.30;;;;;;;11.69;100.00;98891.78;5024454;28;20214;-75
2022/09/27 07:51:11;;;;;;;2.97;1.50;;;;;;;11.69;100.00;98895.19;5023610;28;20191;-75
2022/09/27 07:53:36;;;;;;;1.83;1.40;;;;;;;11.77;100.00;98901.88;5026706;28;20218;-75
2022/09/27 07:56:02;;;;;;;2.33;1.27;;;;;;;11.81;100.00;98903.44;5028411;28;20225;-75
2022/09/27 07:58:29;;;;;;;2.13;1.50;;;;;;;11.85;100.00;98903.28;5025907;28;20703;-75
2022/09/27 08:00:55;;;;;;;2.43;1.30;;;;;;;11.89;100.00;98898.81;5029192;28;20226;-75
2022/09/27 08:03:20;;;;;;;2.43;1.30;;;;;;;11.95;100.00;98906.34;5026919;28;20764;-75
2022/09/27 08:05:47;;;;;;;2.20;1.47;;;;;;;12.00;100.00;98912.25;5023024;28;20188;-76
2022/09/27 08:08:13;;;;;;;1.30;1.20;;;;;;;11.99;100.00;98922.69;5028294;28;20710;-74
2022/09/27 08:10:42;;;;;;;1.47;1.30;;;;;;;11.92;100.00;98916.00;5027183;28;20180;-75
2022/09/27 08:13:08;;;;;;;1.77;1.30;;;;;;;11.88;100.00;98926.47;5022916;28;20323;-75
2022/09/27 08:15:35;;;;;;;2.37;1.23;;;;;;;11.94;100.00;98921.97;5024082;28;20702;-75
2022/09/27 08:18:01;;;;;;;2.17;1.60;;;;;;;12.01;100.00;98926.09;5024085;28;20208;-75
2022/09/27 08:20:26;;;;;;;2.13;1.40;;;;;;;12.17;100.00;98921.16;5028760;28;20176;-75
2022/09/27 08:22:52;;;;;;;1.73;1.30;;;;;;;12.34;100.00;98923.09;5026682;28;20189;-75
2022/09/27 08:25:17;;;;;;;2.17;1.47;;;;;;;12.46;100.00;98919.19;5024028;28;20545;-76
2022/09/27 08:27:43;;;;;;;2.10;1.30;;;;;;;12.42;100.00;98928.88;5024655;28;20204;-75
2022/09/27 08:30:08;;;;;;;1.90;1.33;;;;;;;12.44;100.00;98918.41;5023454;28;20175;-75
2022/09/27 08:32:34;;;;;;;2.77;1.47;;;;;;;12.50;100.00;98920.78;5027428;28;20215;-75
2022/09/27 08:34:59;;;;;;;1.37;1.27;;;;;;;12.69;100.00;98923.50;5027225;28;20214;-75
2022/09/27 08:37:25;;;;;;;3.50;1.73;;;;;;;12.86;100.00;98929.75;5028358;28;20215;-75
2022/09/27 08:39:50;;;;;;;3.13;1.80;;;;;;;12.86;100.00;98920.22;5026448;28;20192;-75
2022/09/27 08:42:35;;;;;;;2.90;1.70;;;;;;;12.88;100.00;98922.78;5022630;28;20598;-74
2022/09/27 08:45:04;;;;;;;1.87;1.40;;;;;;;12.85;100.00;98922.88;5025060;28;20270;-75
2022/09/27 08:47:43;;;;;;;2.67;1.60;;;;;;;12.86;100.00;98921.97;5026295;28;20202;-75
2022/09/27 08:50:33;;;;;;;2.53;1.90;;;;;;;12.86;100.00;98921.97;5021632;28;20188;-75
2022/09/27 08:53:13;;;;;;;2.70;1.67;;;;;;;12.83;100.00;98912.56;5026120;28;20194;-75
2022/09/27 08:55:42;;;;;;;2.77;2.00;;;;;;;12.88;100.00;98922.78;5024844;28;20184;-75
2022/09/27 08:58:18;;;;;;;3.13;1.87;;;;;;;12.94;100.00;98912.13;5027755;28;20203;-75
2022/09/27 09:00:43;;;;;;;2.90;1.80;;;;;;;13.05;100.00;98915.13;5024971;28;20349;-75
2022/09/27 09:03:17;;;;;;;2.10;1.50;;;;;;;13.07;100.00;98913.31;5020923;28;20755;-75
2022/09/27 09:06:07;;;;;;;2.50;1.47;;;;;;;13.03;100.00;98923.88;5023382;28;20225;-75
2022/09/27 09:08:59;;;;;;;2.73;1.60;;;;;;;13.04;100.00;98926.44;5002154;28;20263;-74
2022/09/27 09:14:57;;;;;;;1.37;0.97;;;;;;;13.37;100.00;98906.88;5009470;28;20719;-75
2022/09/27 09:17:51;;;;;;;1.30;1.00;;;;;;;13.54;100.00;98913.97;5003886;28;20364;-75
2022/09/27 09:20:38;;;;;;;2.33;1.20;;;;;;;13.65;100.00;98898.78;4990786;28;20193;-75
2022/09/27 09:23:20;;;;;;;1.67;0.90;;;;;;;13.74;100.00;98907.94;5010348;28;20192;-75
2022/09/27 09:26:19;;;;;;;1.80;1.20;;;;;;;13.76;100.00;98897.44;5023951;28;20214;-75
2022/09/27 09:29:13;;;;;;;2.33;1.40;;;;;;;13.75;100.00;98899.22;5025814;28;20197;-74
2022/09/27 09:31:46;;;;;;;1.40;1.10;;;;;;;13.60;100.00;98897.31;5020184;28;20286;-74
2022/09/27 09:34:21;;;;;;;3.40;1.33;;;;;;;13.44;100.00;98902.31;5020592;28;20228;-75
2022/09/27 09:37:03;;;;;;;2.00;1.23;;;;;;;13.17;100.00;98894.75;5025616;28;20243;-75
2022/09/27 09:39:44;;;;;;;1.60;1.20;;;;;;;13.02;100.00;98899.69;5018112;28;20340;-75
2022/09/27 09:42:22;;;;;;;2.50;1.33;;;;;;;13.04;100.00;98897.00;5018762;28;20184;-74
2022/09/27 09:44:55;;;;;;;1.43;1.03;;;;;;;13.22;100.00;98887.63;5026388;28;20258;-75
2022/09/27 09:47:43;;;;;;;1.80;1.00;;;;;;;13.43;100.00;98890.22;5011637;28;20865;-74
2022/09/27 09:50:28;;;;;;;1.67;1.30;;;;;;;13.54;100.00;98885.38;5023481;28;20193;-74
2022/09/27 09:52:58;;;;;;;1.80;1.37;;;;;;;13.60;100.00;98881.72;5021201;28;20211;-77
2022/09/27 09:55:29;;;;;;;1.40;1.23;;;;;;;13.63;100.00;98881.53;5010538;28;20730;-75
2022/09/27 09:58:25;;;;;;;3.07;1.40;;;;;;;13.60;100.00;98876.50;5019036;28;20218;-76
2022/09/27 10:00:55;;;;;;;1.80;1.10;;;;;;;13.44;100.00;98874.56;5025059;28;20420;-77
2022/09/27 10:03:23;;;;;;;2.73;1.33;;;;;;;13.34;100.00;98871.50;5022751;28;20961;-76
2022/09/27 10:05:48;;;;;;;1.97;1.40;;;;;;;13.27;100.00;98870.91;5024479;28;20267;-74
2022/09/27 10:08:19;;;;;;;1.90;1.50;;;;;;;13.22;100.00;98877.22;5025846;28;20289;-76
2022/09/27 10:10:44;;;;;;;2.17;1.57;;;;;;;13.14;100.00;98872.34;5020526;28;20242;-75
2022/09/27 10:13:15;;;;;;;2.43;1.50;;;;;;;13.11;100.00;98872.47;5016975;28;20660;-76
2022/09/27 10:15:42;;;;;;;3.30;1.70;;;;;;;13.10;100.00;98858.63;5027800;28;20180;-76
2022/09/27 10:18:14;;;;;;;2.10;1.30;;;;;;;13.21;100.00;98865.97;5016214;28;20201;-75
2022/09/27 10:20:50;;;;;;;1.50;1.37;;;;;;;13.49;100.00;98870.00;5017731;28;20359;-75
2022/09/27 10:23:19;;;;;;;1.87;1.50;;;;;;;13.79;100.00;98859.16;5020288;28;20193;-76
2022/09/27 10:25:57;;;;;;;2.20;1.37;;;;;;;14.02;100.00;98862.47;5018580;28;20181;-76
2022/09/27 10:28:44;;;;;;;1.73;1.10;;;;;;;14.03;100.00;98869.38;5027967;28;20643;-77
2022/09/27 10:31:12;;;;;;;2.07;1.47;;;;;;;13.89;100.00;98872.59;5021647;28;20192;-76
2022/09/27 10:33:50;;;;;;;3.37;2.00;;;;;;;13.61;100.00;98875.59;5027325;28;20196;-74
2022/09/27 10:36:25;;;;;;;2.20;1.73;;;;;;;13.26;100.00;98905.59;5027154;28;20198;-74
2022/09/27 10:38:57;;;;;;;3.10;1.80;;;;;;;13.00;100.00;98917.06;5031436;28;20187;-74
2022/09/27 10:41:26;;;;;;;1.50;0.90;;;;;;;12.53;100.00;98917.22;5009511;28;20561;-75
2022/09/27 10:43:51;;;;;;;2.03;0.80;;;;;;;12.04;100.00;98910.38;5026951;28;20365;-74
2022/09/27 10:46:27;;;;;;;3.43;0.67;;;;;;;11.61;100.00;98899.81;5025590;28;20299;-75
2022/09/27 10:49:23;;;;;;;0.87;0.43;;;;;;;11.09;100.00;98889.53;5027031;28;20195;-75
2022/09/27 10:51:53;;;;;;;0.50;0.40;;;;;;;10.82;100.00;98894.69;5027527;28;20219;-74
2022/09/27 10:54:27;;;;;;;0.77;0.33;;;;;;;10.66;100.00;98897.78;5032091;28;20267;-74
2022/09/27 10:57:05;;;;;;;0.30;0.30;;;;;;;10.56;100.00;98878.25;5034936;28;20688;-74
2022/09/27 10:59:35;;;;;;;0.50;0.30;;;;;;;10.48;100.00;98883.69;5016339;28;20183;-74
2022/09/27 11:02:01;;;;;;;0.53;0.53;;;;;;;10.53;100.00;98880.94;5027669;28;20225;-74
2022/09/27 11:04:32;;;;;;;1.37;1.27;;;;;;;10.66;100.00;98896.94;5025933;28;20211;-77
2022/09/27 11:07:21;;;;;;;2.37;1.37;;;;;;;10.74;100.00;98897.53;5013067;28;21570;-76
2022/09/27 11:09:53;;;;;;;1.10;1.00;;;;;;;10.71;100.00;98900.22;5013769;28;20311;-76
2022/09/27 11:12:21;;;;;;;1.63;1.53;;;;;;;10.64;100.00;98899.59;5011154;28;20200;-76
2022/09/27 11:15:13;;;;;;;4.23;3.83;;;;;;;10.63;100.00;98891.84;5007873;28;20186;-75
2022/09/27 11:17:54;;;;;;;3.13;2.90;;;;;;;10.66;100.00;98895.19;5011319;28;20699;-73
2022/09/27 11:20:36;;;;;;;1.70;1.17;;;;;;;10.72;100.00;98904.50;5012849;28;20202;-76
2022/09/27 11:23:15;;;;;;;2.00;1.90;;;;;;;10.70;100.00;98895.94;5016027;28;20283;-76
2022/09/27 11:26:02;;;;;;;2.80;2.60;;;;;;;10.72;100.00;98911.41;5014077;28;20179;-74
2022/09/27 11:28:45;;;;;;;1.70;1.50;;;;;;;10.71;100.00;98895.06;5015621;28;20191;-75
2022/09/27 11:31:29;;;;;;;1.50;1.27;;;;;;;10.68;100.00;98906.34;5014100;28;20192;-74
2022/09/27 11:34:11;;;;;;;1.37;1.00;;;;;;;10.69;100.00;98902.03;5021760;28;20191;-76
2022/09/27 11:37:08;;;;;;;1.97;1.77;;;;;;;10.70;100.00;98892.50;5012026;28;20212;-74
2022/09/27 11:39:55;;;;;;;1.87;1.77;;;;;;;10.73;100.00;98887.25;5013725;28;20188;-74
2022/09/27 11:42:48;;;;;;;1.20;1.10;;;;;;;10.75;100.00;98888.03;5015208;28;20184;-75
2022/09/27 11:45:41;;;;;;;0.97;0.87;;;;;;;10.75;100.00;98886.28;5012826;28;21172;-74
2022/09/27 11:48:33;;;;;;;0.90;0.80;;;;;;;10.77;100.00;98868.97;5012625;28;20216;-73
2022/09/27 11:51:06;;;;;;;2.90;2.60;;;;;;;10.76;100.00;98854.34;5020493;28;20203;-74
2022/09/27 11:53:40;;;;;;;1.97;1.83;;;;;;;10.77;100.00;98866.38;5014676;28;20196;-75